Time;durP1;ratioP1;P1;durP2;ratioP2;P2;SDS_P1;SDS_P2;PMS_P1;PMS_P2;Temp;Humidity;BMP_temperature;BMP_pressure;BME280_temperature;BME280_humidity;BME280_pressure;Samples;Min_cycle;Max_cycle;Signal;HPM_P1;HPM_P2
2023/12/24 00:01:07;;;;;;;4.22;2.17;;;8.40;99.90;;;;;;5061733;28;20493;-69
2023/12/24 00:03:37;;;;;;;5.45;2.40;;;8.40;99.90;;;;;;5061366;28;20052;-70
2023/12/24 00:06:03;;;;;;;4.60;2.50;;;8.40;99.90;;;;;;5060425;28;20044;-71
2023/12/24 00:08:28;;;;;;;12.93;3.50;;;8.40;99.90;;;;;;5062110;28;20029;-70
2023/12/24 00:10:56;;;;;;;8.18;2.45;;;8.40;99.90;;;;;;5061948;28;20036;-69
2023/12/24 00:13:22;;;;;;;8.40;2.95;;;8.40;99.90;;;;;;5061879;28;20489;-68
2023/12/24 00:15:47;;;;;;;8.75;2.30;;;8.40;99.90;;;;;;5061976;28;20048;-68
2023/12/24 00:18:13;;;;;;;7.18;2.72;;;8.40;99.90;;;;;;5062041;28;20462;-68
2023/12/24 00:20:39;;;;;;;7.45;3.30;;;8.40;99.90;;;;;;5060507;28;20052;-69
2023/12/24 00:23:07;;;;;;;6.10;3.03;;;8.40;99.90;;;;;;5060387;28;20029;-70
2023/12/24 00:25:38;;;;;;;7.78;3.25;;;8.40;99.90;;;;;;5061433;28;20091;-68
2023/12/24 00:28:05;;;;;;;7.00;3.42;;;8.40;99.90;;;;;;5061421;28;20531;-69
2023/12/24 00:30:30;;;;;;;10.65;3.80;;;8.40;99.90;;;;;;5060962;28;20036;-69
2023/12/24 00:32:57;;;;;;;10.13;3.70;;;8.40;99.90;;;;;;5060226;28;20055;-68
2023/12/24 00:35:23;;;;;;;8.85;3.20;;;8.40;99.90;;;;;;5060169;28;20025;-69
2023/12/24 00:37:49;;;;;;;8.60;3.95;;;8.50;99.90;;;;;;5061469;28;20021;-70
2023/12/24 00:40:16;;;;;;;12.23;4.30;;;8.40;99.90;;;;;;5061579;28;20096;-69
2023/12/24 00:42:41;;;;;;;10.00;3.92;;;8.40;99.90;;;;;;5061297;28;20028;-70
2023/12/24 00:45:08;;;;;;;15.07;3.65;;;8.40;99.90;;;;;;5061609;28;20021;-70
2023/12/24 00:47:34;;;;;;;11.45;4.22;;;8.40;99.90;;;;;;5060564;28;20036;-69
2023/12/24 00:50:00;;;;;;;11.63;4.45;;;8.40;99.90;;;;;;5061397;28;20024;-69
2023/12/24 00:52:25;;;;;;;9.82;4.13;;;8.40;99.90;;;;;;5061398;28;20058;-68
2023/12/24 00:54:51;;;;;;;15.15;5.38;;;8.40;99.90;;;;;;5059934;28;20025;-69
2023/12/24 00:57:17;;;;;;;11.98;4.10;;;8.40;99.90;;;;;;5061489;28;20021;-71
2023/12/24 00:59:42;;;;;;;12.93;4.47;;;8.40;99.90;;;;;;5059450;28;20157;-71
2023/12/24 01:02:08;;;;;;;12.40;4.82;;;8.40;99.90;;;;;;5061066;28;20436;-68
2023/12/24 01:04:33;;;;;;;11.48;5.13;;;8.50;99.90;;;;;;5061282;28;20032;-67
2023/12/24 01:06:59;;;;;;;17.17;5.25;;;8.40;99.90;;;;;;5061029;28;20074;-70
2023/12/24 01:09:25;;;;;;;11.25;4.28;;;8.50;99.90;;;;;;5061129;28;20045;-70
2023/12/24 01:11:52;;;;;;;8.75;4.65;;;8.50;99.90;;;;;;5061205;28;20068;-67
2023/12/24 01:14:17;;;;;;;11.25;5.05;;;8.40;99.90;;;;;;5061179;28;20473;-70
2023/12/24 01:16:43;;;;;;;10.43;4.50;;;8.50;99.90;;;;;;5059882;28;20025;-69
2023/12/24 01:19:08;;;;;;;7.57;3.33;;;8.40;99.90;;;;;;5061330;28;20033;-67
2023/12/24 01:21:34;;;;;;;8.57;4.22;;;8.50;99.90;;;;;;5060941;28;20025;-69
2023/12/24 01:23:59;;;;;;;12.13;4.93;;;8.50;99.90;;;;;;5060943;28;20021;-69
2023/12/24 01:26:25;;;;;;;7.72;4.35;;;8.50;99.90;;;;;;5060655;28;20474;-71
2023/12/24 01:28:50;;;;;;;16.02;5.32;;;8.50;99.90;;;;;;5061018;28;20021;-70
2023/12/24 01:31:16;;;;;;;14.60;5.47;;;8.50;99.90;;;;;;5061335;28;20474;-69
2023/12/24 01:33:42;;;;;;;14.00;4.65;;;8.50;99.90;;;;;;5060840;28;20036;-71
2023/12/24 01:36:09;;;;;;;15.05;5.20;;;8.50;99.90;;;;;;5060930;28;20142;-67
2023/12/24 01:38:35;;;;;;;9.75;4.20;;;8.50;99.90;;;;;;5060655;28;20025;-67
2023/12/24 01:41:00;;;;;;;15.40;4.53;;;8.50;99.90;;;;;;5060933;28;20028;-69
2023/12/24 01:43:26;;;;;;;9.52;3.92;;;8.50;99.90;;;;;;5060983;28;20131;-68
2023/12/24 01:45:52;;;;;;;17.92;4.78;;;8.50;99.90;;;;;;5060614;28;20029;-71
2023/12/24 01:48:18;;;;;;;12.73;5.38;;;8.50;99.90;;;;;;5060977;28;20402;-71
2023/12/24 01:50:46;;;;;;;18.73;5.63;;;8.50;99.90;;;;;;5059483;28;20028;-70
2023/12/24 01:53:14;;;;;;;16.40;5.60;;;8.50;99.90;;;;;;5060847;28;20033;-68
2023/12/24 01:55:40;;;;;;;14.80;5.90;;;8.50;99.90;;;;;;5061001;28;20451;-68
2023/12/24 01:58:05;;;;;;;15.63;6.07;;;8.50;99.90;;;;;;5059366;28;20013;-69
2023/12/24 02:00:31;;;;;;;16.45;5.75;;;8.50;99.90;;;;;;5062252;28;20040;-67
2023/12/24 02:02:59;;;;;;;13.90;6.53;;;8.50;99.90;;;;;;5064146;28;20045;-68
2023/12/24 02:05:26;;;;;;;16.00;6.30;;;8.50;99.90;;;;;;5063585;28;20572;-68
2023/12/24 02:07:52;;;;;;;16.55;6.85;;;8.50;99.90;;;;;;5064129;28;20029;-71
2023/12/24 02:10:18;;;;;;;12.88;6.28;;;8.50;99.90;;;;;;5064485;28;20071;-69
2023/12/24 02:12:44;;;;;;;17.25;7.00;;;8.50;99.90;;;;;;5063873;28;20135;-68
2023/12/24 02:15:10;;;;;;;22.13;6.82;;;8.50;99.90;;;;;;5064384;28;20017;-67
2023/12/24 02:17:36;;;;;;;16.05;6.45;;;8.50;99.90;;;;;;5063528;28;20036;-67
2023/12/24 02:20:02;;;;;;;16.35;6.50;;;8.50;99.90;;;;;;5064074;28;20029;-70
2023/12/24 02:22:28;;;;;;;17.17;6.78;;;8.50;99.90;;;;;;5063395;28;20031;-69
2023/12/24 02:24:55;;;;;;;16.27;5.85;;;8.50;99.90;;;;;;5063911;28;20085;-70
2023/12/24 02:27:33;;;;;;;15.50;6.35;;;8.50;99.90;;;;;;5063293;28;20086;-70
2023/12/24 02:30:04;;;;;;;15.98;6.32;;;8.50;99.90;;;;;;5061431;28;20485;-69
2023/12/24 02:32:31;;;;;;;16.52;6.00;;;8.50;99.90;;;;;;5063500;28;20049;-71
2023/12/24 02:34:59;;;;;;;16.20;6.35;;;8.50;99.90;;;;;;5061255;28;20036;-68
2023/12/24 02:37:25;;;;;;;12.88;5.95;;;8.50;99.90;;;;;;5063464;28;20025;-72
2023/12/24 02:39:50;;;;;;;18.40;6.15;;;8.50;99.90;;;;;;5062313;28;20029;-70
2023/12/24 02:42:16;;;;;;;18.83;6.85;;;8.50;99.90;;;;;;5063906;28;20081;-70
2023/12/24 02:44:42;;;;;;;19.15;6.82;;;8.50;99.90;;;;;;5062295;28;20042;-71
2023/12/24 02:47:07;;;;;;;20.90;6.85;;;8.50;99.90;;;;;;5061779;28;20167;-69
2023/12/24 02:49:33;;;;;;;19.98;7.50;;;8.50;99.90;;;;;;5063545;28;20029;-68
2023/12/24 02:51:59;;;;;;;19.77;6.78;;;8.50;99.90;;;;;;5063546;28;20025;-70
2023/12/24 02:54:24;;;;;;;22.58;7.32;;;8.50;99.90;;;;;;5063385;28;20108;-70
2023/12/24 02:56:50;;;;;;;20.52;7.18;;;8.50;99.90;;;;;;5063433;28;20029;-71
2023/12/24 02:59:15;;;;;;;15.65;6.50;;;8.50;99.90;;;;;;5062966;28;20082;-69
2023/12/24 03:01:41;;;;;;;20.88;7.13;;;8.50;99.90;;;;;;5061839;28;20045;-70
2023/12/24 03:04:06;;;;;;;16.38;6.85;;;8.50;99.90;;;;;;5063365;28;20040;-69
2023/12/24 03:06:32;;;;;;;16.40;5.40;;;8.50;99.90;;;;;;5062949;28;20123;-69
2023/12/24 03:08:58;;;;;;;16.08;6.25;;;8.50;99.90;;;;;;5063221;28;20045;-71
2023/12/24 03:11:24;;;;;;;19.40;6.40;;;8.60;99.90;;;;;;5062943;28;20055;-69
2023/12/24 03:13:49;;;;;;;17.50;5.55;;;8.60;99.90;;;;;;5062948;28;20019;-73
2023/12/24 03:16:17;;;;;;;11.38;5.05;;;8.50;99.90;;;;;;5063267;28;20096;-72
2023/12/24 03:18:42;;;;;;;11.90;5.80;;;8.60;99.90;;;;;;5061588;28;20044;-71
2023/12/24 03:21:08;;;;;;;16.20;6.00;;;8.60;99.90;;;;;;5062473;28;20028;-68
2023/12/24 03:23:33;;;;;;;17.27;5.18;;;8.70;99.90;;;;;;5062783;28;20528;-68
2023/12/24 03:25:59;;;;;;;13.48;4.97;;;8.60;99.90;;;;;;5061358;28;20120;-69
2023/12/24 03:28:25;;;;;;;12.20;4.75;;;8.60;99.90;;;;;;5061299;28;20040;-68
2023/12/24 03:30:50;;;;;;;14.90;4.90;;;8.60;99.90;;;;;;5062816;28;20103;-68
2023/12/24 03:33:16;;;;;;;14.73;5.38;;;8.60;99.90;;;;;;5062644;28;20111;-72
2023/12/24 03:35:43;;;;;;;12.45;4.55;;;8.60;99.90;;;;;;5061605;28;20052;-69
2023/12/24 03:38:08;;;;;;;12.82;4.55;;;8.50;99.90;;;;;;5062670;28;20097;-69
2023/12/24 03:40:34;;;;;;;11.88;4.90;;;8.60;99.90;;;;;;5062516;28;20060;-70
2023/12/24 03:42:59;;;;;;;9.68;4.32;;;8.60;99.90;;;;;;5062553;28;20025;-69
2023/12/24 03:45:25;;;;;;;8.10;4.13;;;8.60;99.90;;;;;;5062192;28;20056;-68
2023/12/24 03:47:51;;;;;;;9.90;4.10;;;8.60;99.90;;;;;;5062334;28;20097;-73
2023/12/24 03:50:16;;;;;;;9.93;4.10;;;8.60;99.90;;;;;;5062514;28;20027;-70
2023/12/24 03:52:43;;;;;;;9.52;4.47;;;8.60;99.90;;;;;;5062196;28;20017;-71
2023/12/24 03:55:08;;;;;;;17.00;4.78;;;8.60;99.90;;;;;;5062448;28;20037;-69
2023/12/24 03:57:34;;;;;;;8.70;4.38;;;8.60;99.90;;;;;;5061612;28;20845;-68
2023/12/24 03:59:59;;;;;;;11.02;3.63;;;8.60;99.90;;;;;;5062121;28;20021;-68
2023/12/24 04:02:25;;;;;;;12.35;4.10;;;8.60;99.90;;;;;;5061711;28;20107;-69
2023/12/24 04:04:50;;;;;;;9.23;3.90;;;8.60;99.90;;;;;;5062126;28;20080;-69
2023/12/24 04:07:19;;;;;;;8.80;3.58;;;8.60;99.90;;;;;;5061929;28;20029;-71
2023/12/24 04:09:46;;;;;;;7.13;2.85;;;8.60;99.90;;;;;;5062103;28;20080;-71
2023/12/24 04:12:12;;;;;;;6.30;3.00;;;8.60;99.90;;;;;;5062195;28;20061;-70
2023/12/24 04:14:38;;;;;;;8.35;3.00;;;8.60;99.90;;;;;;5060366;28;20071;-72
2023/12/24 04:17:04;;;;;;;6.78;3.20;;;8.60;99.90;;;;;;5061520;28;20024;-68
2023/12/24 04:19:30;;;;;;;7.25;2.60;;;8.60;99.90;;;;;;5061846;28;20021;-69
2023/12/24 04:21:56;;;;;;;5.32;2.28;;;8.60;99.90;;;;;;5060534;28;20025;-70
2023/12/24 04:24:21;;;;;;;6.15;2.75;;;8.60;99.90;;;;;;5061267;28;20045;-69
2023/12/24 04:26:47;;;;;;;4.72;2.30;;;8.60;99.90;;;;;;5061985;28;20484;-67
2023/12/24 04:29:16;;;;;;;6.40;2.60;;;8.60;99.90;;;;;;5061978;28;20059;-69
2023/12/24 04:31:41;;;;;;;4.20;2.58;;;8.60;99.90;;;;;;5061854;28;20025;-69
2023/12/24 04:34:07;;;;;;;4.53;2.33;;;8.60;99.90;;;;;;5061718;28;20166;-70
2023/12/24 04:36:34;;;;;;;4.82;2.58;;;8.60;99.90;;;;;;5061574;28;20502;-70
2023/12/24 04:38:59;;;;;;;3.72;2.20;;;8.60;99.90;;;;;;5061234;28;20039;-69
2023/12/24 04:41:28;;;;;;;3.88;2.47;;;8.60;99.90;;;;;;5061593;28;20056;-69
2023/12/24 04:43:54;;;;;;;5.78;2.28;;;8.70;99.90;;;;;;5061491;28;20051;-69
2023/12/24 04:46:19;;;;;;;4.70;2.58;;;8.70;99.90;;;;;;5061187;28;20036;-70
2023/12/24 04:48:45;;;;;;;5.65;2.55;;;8.70;99.90;;;;;;5060155;28;20100;-68
2023/12/24 04:51:11;;;;;;;6.35;2.42;;;8.70;99.90;;;;;;5061774;28;20029;-69
2023/12/24 04:53:37;;;;;;;4.75;2.90;;;8.70;99.90;;;;;;5061485;28;20048;-68
2023/12/24 04:56:02;;;;;;;5.93;3.08;;;8.70;99.90;;;;;;5060725;28;20083;-69
2023/12/24 04:58:28;;;;;;;6.78;3.08;;;8.70;99.90;;;;;;5061218;28;20692;-73
2023/12/24 05:00:53;;;;;;;5.78;2.60;;;8.70;99.90;;;;;;5061127;28;20047;-73
2023/12/24 05:03:19;;;;;;;7.00;3.10;;;8.70;99.90;;;;;;5059654;28;20041;-71
2023/12/24 05:05:45;;;;;;;9.05;3.28;;;8.70;99.90;;;;;;5061325;28;20065;-72
2023/12/24 05:08:10;;;;;;;5.60;2.80;;;8.70;99.90;;;;;;5061441;28;20139;-69
2023/12/24 05:10:36;;;;;;;4.88;2.40;;;8.70;99.90;;;;;;5061063;28;20021;-72
2023/12/24 05:13:01;;;;;;;5.97;3.35;;;8.70;99.90;;;;;;5061137;28;20033;-68
2023/12/24 05:15:27;;;;;;;8.10;3.22;;;8.70;99.90;;;;;;5060601;28;20401;-69
2023/12/24 05:17:52;;;;;;;6.03;3.40;;;8.70;99.90;;;;;;5061175;28;20017;-69
2023/12/24 05:20:18;;;;;;;8.27;3.30;;;8.70;99.90;;;;;;5059769;28;20112;-69
2023/12/24 05:22:44;;;;;;;6.55;3.40;;;8.70;99.90;;;;;;5060960;28;20021;-70
2023/12/24 05:25:09;;;;;;;6.15;3.15;;;8.70;99.90;;;;;;5057908;28;20017;-70
2023/12/24 05:27:35;;;;;;;5.70;3.25;;;8.70;99.90;;;;;;5059382;28;20045;-71
2023/12/24 05:30:00;;;;;;;7.95;3.30;;;8.70;99.90;;;;;;5057813;28;20030;-72
2023/12/24 05:32:26;;;;;;;7.07;3.80;;;8.80;99.90;;;;;;5060341;28;20017;-71
2023/12/24 05:34:51;;;;;;;7.45;3.63;;;8.80;99.90;;;;;;5060002;28;20108;-69
2023/12/24 05:37:17;;;;;;;7.20;3.75;;;8.70;99.90;;;;;;5065094;28;20029;-70
2023/12/24 05:39:43;;;;;;;6.88;3.72;;;8.80;99.90;;;;;;5065111;28;20025;-68
2023/12/24 05:42:08;;;;;;;9.70;3.33;;;8.80;99.90;;;;;;5064726;28;20214;-70
2023/12/24 05:44:34;;;;;;;8.30;3.72;;;8.80;99.90;;;;;;5061785;28;20072;-71
2023/12/24 05:47:00;;;;;;;9.20;4.20;;;8.70;99.90;;;;;;5063142;28;20033;-69
2023/12/24 05:49:27;;;;;;;7.07;4.15;;;8.80;99.90;;;;;;5064409;28;20036;-70
2023/12/24 05:51:53;;;;;;;9.02;4.43;;;8.80;99.90;;;;;;5064360;28;20051;-69
2023/12/24 05:54:19;;;;;;;8.63;3.90;;;8.80;99.90;;;;;;5064740;28;20032;-71
2023/12/24 05:56:44;;;;;;;6.05;3.88;;;8.70;99.90;;;;;;5064746;28;20040;-68
2023/12/24 05:59:10;;;;;;;6.82;3.60;;;8.80;99.90;;;;;;5063940;28;20537;-71
2023/12/24 06:01:36;;;;;;;7.88;4.10;;;8.80;99.90;;;;;;5064256;28;20033;-72
2023/12/24 06:04:02;;;;;;;6.85;3.50;;;8.80;99.90;;;;;;5062221;28;20021;-69
2023/12/24 06:06:28;;;;;;;8.70;3.72;;;8.80;99.90;;;;;;5063945;28;20051;-71
2023/12/24 06:08:53;;;;;;;6.70;3.67;;;8.80;99.90;;;;;;5064250;28;20082;-71
2023/12/24 06:11:19;;;;;;;10.90;3.80;;;8.80;99.90;;;;;;5058661;28;20028;-69
2023/12/24 06:13:45;;;;;;;7.10;3.83;;;8.80;99.90;;;;;;5061549;28;20025;-71
2023/12/24 06:16:12;;;;;;;7.05;3.45;;;8.80;99.90;;;;;;5064784;28;20048;-68
2023/12/24 06:18:39;;;;;;;6.65;3.85;;;8.80;99.90;;;;;;5063776;28;20028;-69
2023/12/24 06:21:05;;;;;;;10.60;3.55;;;8.80;99.90;;;;;;5064302;28;20036;-69
2023/12/24 06:23:31;;;;;;;8.38;3.35;;;8.80;99.90;;;;;;5064037;28;20028;-68
2023/12/24 06:25:58;;;;;;;5.75;3.00;;;8.80;99.90;;;;;;5061694;28;20017;-70
2023/12/24 06:28:24;;;;;;;5.72;3.20;;;8.90;99.90;;;;;;5060332;28;20152;-69
2023/12/24 06:30:49;;;;;;;8.93;3.20;;;8.90;99.90;;;;;;5058849;28;20079;-69
2023/12/24 06:33:15;;;;;;;7.00;3.33;;;8.80;99.90;;;;;;5062591;28;20396;-71
2023/12/24 06:35:41;;;;;;;5.82;3.25;;;8.90;99.90;;;;;;5061030;28;20040;-67
2023/12/24 06:38:06;;;;;;;5.25;2.88;;;8.90;99.90;;;;;;5060331;28;20033;-69
2023/12/24 06:40:33;;;;;;;6.47;3.28;;;8.90;99.90;;;;;;5061103;28;20807;-70
2023/12/24 06:42:59;;;;;;;5.22;2.90;;;8.90;99.90;;;;;;5062972;28;20096;-69
2023/12/24 06:45:24;;;;;;;6.50;2.85;;;8.90;99.90;;;;;;5062883;28;20051;-72
2023/12/24 06:47:50;;;;;;;7.63;3.42;;;8.90;99.90;;;;;;5061360;28;20071;-70
2023/12/24 06:50:16;;;;;;;5.50;3.13;;;8.90;99.90;;;;;;5061334;28;20032;-70
2023/12/24 06:52:41;;;;;;;6.30;3.25;;;8.90;99.90;;;;;;5061621;28;20029;-69
2023/12/24 06:55:07;;;;;;;6.63;3.47;;;8.90;99.90;;;;;;5062205;28;20150;-70
2023/12/24 06:57:33;;;;;;;5.65;3.20;;;8.90;99.90;;;;;;5062483;28;20593;-69
2023/12/24 06:59:58;;;;;;;6.43;3.72;;;9.00;99.90;;;;;;5061386;28;20031;-69
2023/12/24 07:02:24;;;;;;;9.60;3.65;;;8.90;99.90;;;;;;5061889;28;20099;-69
2023/12/24 07:04:50;;;;;;;6.45;3.08;;;9.00;99.90;;;;;;5062592;28;20021;-70
2023/12/24 07:07:15;;;;;;;7.03;3.60;;;9.00;99.90;;;;;;5060823;28;20044;-69
2023/12/24 07:09:41;;;;;;;7.70;3.90;;;8.90;99.90;;;;;;5063259;28;20131;-71
2023/12/24 07:12:07;;;;;;;6.90;3.55;;;9.00;99.90;;;;;;5061781;28;20025;-71
2023/12/24 07:14:32;;;;;;;6.18;3.30;;;9.00;99.90;;;;;;5062931;28;20013;-70
2023/12/24 07:16:58;;;;;;;5.97;3.42;;;9.00;99.90;;;;;;5062972;28;20390;-70
2023/12/24 07:19:23;;;;;;;6.20;3.45;;;9.00;99.90;;;;;;5061923;28;20051;-69
2023/12/24 07:21:49;;;;;;;6.85;3.50;;;9.00;99.90;;;;;;5062987;28;20027;-69
2023/12/24 07:24:15;;;;;;;8.15;3.20;;;9.00;99.90;;;;;;5062231;28;20106;-71
2023/12/24 07:26:40;;;;;;;6.20;3.22;;;9.00;99.90;;;;;;5062674;28;20037;-69
2023/12/24 07:29:06;;;;;;;7.95;4.00;;;9.00;99.90;;;;;;5061895;28;20162;-69
2023/12/24 07:31:31;;;;;;;7.55;3.05;;;9.00;99.90;;;;;;5062634;28;20029;-70
2023/12/24 07:33:57;;;;;;;7.03;3.63;;;9.10;99.90;;;;;;5062612;28;20025;-69
2023/12/24 07:36:23;;;;;;;6.22;3.50;;;9.10;99.90;;;;;;5062751;28;20653;-71
2023/12/24 07:38:49;;;;;;;6.50;3.45;;;9.10;99.90;;;;;;5062196;28;20013;-71
2023/12/24 07:41:15;;;;;;;4.85;2.80;;;9.10;99.90;;;;;;5059337;28;20152;-70
2023/12/24 07:43:40;;;;;;;6.93;2.90;;;9.10;99.90;;;;;;5062176;28;20021;-69
2023/12/24 07:46:06;;;;;;;7.03;3.47;;;9.10;99.90;;;;;;5062415;28;20449;-68
2023/12/24 07:48:32;;;;;;;6.75;3.78;;;9.10;99.90;;;;;;5060881;28;20044;-70
2023/12/24 07:50:57;;;;;;;6.38;3.30;;;9.10;99.90;;;;;;5060873;28;20025;-68
2023/12/24 07:53:23;;;;;;;8.95;4.38;;;9.20;99.90;;;;;;5062011;28;20036;-71
2023/12/24 07:55:49;;;;;;;6.85;4.03;;;9.20;99.90;;;;;;5062252;28;20077;-68
2023/12/24 07:58:14;;;;;;;7.75;4.20;;;9.10;99.90;;;;;;5061588;28;20036;-69
2023/12/24 08:00:40;;;;;;;7.07;4.05;;;9.20;99.90;;;;;;5055646;28;20477;-70
2023/12/24 08:03:06;;;;;;;7.72;4.28;;;9.20;99.90;;;;;;5055780;28;20053;-72
2023/12/24 08:05:31;;;;;;;5.65;3.67;;;9.30;99.90;;;;;;5057902;28;20428;-72
2023/12/24 08:07:57;;;;;;;6.55;3.67;;;9.30;99.90;;;;;;5057492;28;20033;-72
2023/12/24 08:10:22;;;;;;;8.43;4.97;;;9.30;99.90;;;;;;5054671;28;20086;-72
2023/12/24 08:12:48;;;;;;;8.18;4.60;;;9.30;99.90;;;;;;5060573;28;20082;-71
2023/12/24 08:15:14;;;;;;;8.98;4.63;;;9.30;99.90;;;;;;5060663;28;20033;-70
2023/12/24 08:17:42;;;;;;;8.18;4.28;;;9.30;99.90;;;;;;5058086;28;20025;-69
2023/12/24 08:20:09;;;;;;;9.07;4.70;;;9.30;99.90;;;;;;5053581;28;20093;-69
2023/12/24 08:22:36;;;;;;;9.40;4.68;;;9.30;99.90;;;;;;5054425;28;20116;-69
2023/12/24 08:25:02;;;;;;;8.88;4.47;;;9.40;99.90;;;;;;5056438;28;20017;-69
2023/12/24 08:27:27;;;;;;;11.55;5.45;;;9.40;99.90;;;;;;5053465;28;20087;-72
2023/12/24 08:29:53;;;;;;;8.77;4.22;;;9.40;99.90;;;;;;5059338;28;20033;-71
2023/12/24 08:32:19;;;;;;;8.25;4.20;;;9.40;99.90;;;;;;5057137;28;20100;-70
2023/12/24 08:34:44;;;;;;;13.32;5.95;;;9.40;99.90;;;;;;5061551;28;20020;-71
2023/12/24 08:37:10;;;;;;;9.13;4.53;;;9.40;99.90;;;;;;5060591;28;20030;-69
2023/12/24 08:39:36;;;;;;;7.45;3.95;;;9.40;99.90;;;;;;5057576;28;20085;-70
2023/12/24 08:42:01;;;;;;;16.45;8.63;;;9.50;99.90;;;;;;5060292;28;20033;-69
2023/12/24 08:44:27;;;;;;;10.18;5.28;;;9.50;99.90;;;;;;5059026;28;20021;-70
2023/12/24 08:46:52;;;;;;;11.93;5.43;;;9.50;99.90;;;;;;5057182;28;20136;-66
2023/12/24 08:49:18;;;;;;;10.85;5.30;;;9.50;99.90;;;;;;5059234;28;20039;-69
2023/12/24 08:51:44;;;;;;;8.35;4.72;;;9.50;99.90;;;;;;5059520;28;20035;-67
2023/12/24 08:54:09;;;;;;;10.43;5.55;;;9.50;99.90;;;;;;5058879;28;20494;-70
2023/12/24 08:56:35;;;;;;;8.15;4.38;;;9.60;99.90;;;;;;5057248;28;20056;-68
2023/12/24 08:59:03;;;;;;;10.05;5.20;;;9.60;99.90;;;;;;5061147;28;20022;-69
2023/12/24 09:01:29;;;;;;;7.25;3.92;;;9.60;99.90;;;;;;5055304;28;20146;-69
2023/12/24 09:03:54;;;;;;;6.32;3.35;;;9.60;99.90;;;;;;5060700;28;20143;-69
2023/12/24 09:06:20;;;;;;;8.15;4.43;;;9.60;99.90;;;;;;5053897;28;20044;-69
2023/12/24 09:08:45;;;;;;;6.93;3.55;;;9.60;99.90;;;;;;5058009;28;20029;-67
2023/12/24 09:11:11;;;;;;;9.88;4.28;;;9.60;99.90;;;;;;5064104;28;20033;-68
2023/12/24 09:13:37;;;;;;;6.30;3.53;;;9.70;99.90;;;;;;5063906;28;20025;-69
2023/12/24 09:16:03;;;;;;;8.48;4.20;;;9.70;99.90;;;;;;5064739;28;20044;-69
2023/12/24 09:18:29;;;;;;;6.82;3.47;;;9.70;99.90;;;;;;5062643;28;20076;-69
2023/12/24 09:20:54;;;;;;;10.15;4.15;;;9.70;99.90;;;;;;5066645;28;20071;-70
2023/12/24 09:23:20;;;;;;;9.35;4.45;;;9.80;99.90;;;;;;5065207;28;20021;-67
2023/12/24 09:25:45;;;;;;;7.68;3.72;;;9.80;99.90;;;;;;5066141;28;20039;-70
2023/12/24 09:28:11;;;;;;;8.50;4.30;;;9.80;99.90;;;;;;5065994;28;20040;-70
2023/12/24 09:30:37;;;;;;;7.93;4.50;;;9.80;99.90;;;;;;5065451;28;20029;-70
2023/12/24 09:33:03;;;;;;;9.60;3.63;;;9.80;99.90;;;;;;5060982;28;20519;-70
2023/12/24 09:35:31;;;;;;;8.02;3.95;;;9.90;99.90;;;;;;5065669;28;20174;-69
2023/12/24 09:37:57;;;;;;;9.35;4.65;;;9.90;99.90;;;;;;5060727;28;20029;-68
2023/12/24 09:40:22;;;;;;;8.98;4.32;;;9.90;99.90;;;;;;5062096;28;20035;-70
2023/12/24 09:42:49;;;;;;;10.18;4.75;;;9.90;99.90;;;;;;5064633;28;21042;-69
2023/12/24 09:45:14;;;;;;;12.43;5.65;;;9.90;99.90;;;;;;5066695;28;20504;-70
2023/12/24 09:47:40;;;;;;;10.73;5.05;;;9.90;99.90;;;;;;5066054;28;20041;-69
2023/12/24 09:50:06;;;;;;;12.25;4.70;;;10.00;99.90;;;;;;5067416;28;20205;-69
2023/12/24 09:52:33;;;;;;;7.88;4.00;;;10.00;99.90;;;;;;5061763;28;20029;-69
2023/12/24 09:55:00;;;;;;;8.57;4.22;;;10.00;99.90;;;;;;5063628;28;20033;-68
2023/12/24 09:57:25;;;;;;;10.38;4.20;;;10.10;99.90;;;;;;5064276;28;20095;-69
2023/12/24 09:59:51;;;;;;;8.43;3.97;;;10.10;99.90;;;;;;5065310;28;20609;-69
2023/12/24 10:02:16;;;;;;;9.13;4.28;;;10.10;99.90;;;;;;5061864;28;20049;-71
2023/12/24 10:04:42;;;;;;;6.78;3.65;;;10.10;99.90;;;;;;5065172;28;20033;-70
2023/12/24 10:07:09;;;;;;;8.55;4.35;;;10.10;99.90;;;;;;5067032;28;20037;-70
2023/12/24 10:09:45;;;;;;;9.98;4.72;;;10.10;99.90;;;;;;5059442;28;20074;-69
2023/12/24 10:12:10;;;;;;;11.52;4.68;;;10.20;99.90;;;;;;5066951;28;20512;-70
2023/12/24 10:14:37;;;;;;;13.50;5.20;;;10.20;99.90;;;;;;5065237;28;20025;-67
2023/12/24 10:17:03;;;;;;;15.10;5.72;;;10.20;99.90;;;;;;5066662;28;20028;-70
2023/12/24 10:19:30;;;;;;;10.35;4.97;;;10.20;99.90;;;;;;5065579;28;20025;-68
2023/12/24 10:22:04;;;;;;;13.55;5.95;;;10.30;99.90;;;;;;5061296;28;20390;-69
2023/12/24 10:24:31;;;;;;;11.35;5.03;;;10.30;99.90;;;;;;5063326;28;20059;-69
2023/12/24 10:27:05;;;;;;;11.98;5.82;;;10.30;99.90;;;;;;5060276;28;20112;-69
2023/12/24 10:29:31;;;;;;;;;;;10.30;99.90;;;;;;5063731;28;20025;-68
2023/12/24 10:31:57;;;;;;;12.10;5.28;;;10.30;99.90;;;;;;5063178;28;19969;-68
2023/12/24 10:34:23;;;;;;;13.85;5.80;;;10.30;99.90;;;;;;5063050;28;20029;-67
2023/12/24 10:36:49;;;;;;;15.25;6.00;;;10.30;99.90;;;;;;5062776;28;20071;-69
2023/12/24 10:39:18;;;;;;;15.43;5.28;;;10.40;99.90;;;;;;5060094;28;20017;-69
2023/12/24 10:41:44;;;;;;;13.35;5.25;;;10.50;99.90;;;;;;5060120;28;20025;-70
2023/12/24 10:44:09;;;;;;;17.05;5.40;;;10.40;99.90;;;;;;5047460;28;20033;-71
2023/12/24 10:46:35;;;;;;;14.63;5.10;;;10.40;99.90;;;;;;5059294;28;20045;-70
2023/12/24 10:49:01;;;;;;;13.73;5.70;;;10.50;99.90;;;;;;5060263;28;20056;-69
2023/12/24 10:51:26;;;;;;;10.90;4.63;;;10.50;99.90;;;;;;5060289;28;20033;-69
2023/12/24 10:53:53;;;;;;;14.93;6.30;;;10.50;99.90;;;;;;5060744;28;20394;-69
2023/12/24 10:56:27;;;;;;;11.25;5.00;;;10.50;99.90;;;;;;5053929;28;20036;-66
2023/12/24 10:58:55;;;;;;;9.20;4.80;;;10.50;99.90;;;;;;5058291;28;20089;-71
2023/12/24 11:01:21;;;;;;;10.98;4.00;;;10.50;99.90;;;;;;5060481;28;20094;-69
2023/12/24 11:03:52;;;;;;;10.80;4.28;;;10.50;99.90;;;;;;5058767;28;20069;-69
2023/12/24 11:06:36;;;;;;;9.55;4.28;;;10.50;99.90;;;;;;5057315;28;20040;-71
2023/12/24 11:09:30;;;;;;;9.30;3.80;;;10.50;99.90;;;;;;5058676;28;20025;-71
2023/12/24 11:11:58;;;;;;;10.90;5.50;;;10.50;99.90;;;;;;5061838;28;20060;-70
2023/12/24 11:14:45;;;;;;;14.70;5.90;;;10.50;99.90;;;;;;5061917;28;20055;-70
2023/12/24 11:17:31;;;;;;;12.38;5.60;;;10.60;99.90;;;;;;5057733;28;20402;-72
2023/12/24 11:20:16;;;;;;;18.05;9.15;;;10.60;99.90;;;;;;5056964;28;20029;-70
2023/12/24 11:23:02;;;;;;;8.77;4.82;;;10.60;99.90;;;;;;5059998;28;20025;-71
2023/12/24 11:25:42;;;;;;;11.20;5.10;;;10.60;99.90;;;;;;5058412;28;20032;-69
2023/12/24 11:28:35;;;;;;;7.32;3.50;;;10.60;99.90;;;;;;5059604;28;20179;-70
2023/12/24 11:31:02;;;;;;;10.70;6.03;;;10.60;99.90;;;;;;5056205;28;20061;-70
2023/12/24 11:33:34;;;;;;;12.25;7.25;;;10.60;99.90;;;;;;5057014;28;20025;-71
2023/12/24 11:36:02;;;;;;;9.18;5.00;;;10.60;99.90;;;;;;5060020;28;20079;-69
2023/12/24 11:38:33;;;;;;;7.55;4.78;;;10.60;99.90;;;;;;5059806;28;20665;-70
2023/12/24 11:41:09;;;;;;;9.60;4.90;;;10.60;99.90;;;;;;5059766;28;20025;-69
2023/12/24 11:43:40;;;;;;;6.38;4.00;;;10.60;99.90;;;;;;5059587;28;20035;-71
2023/12/24 11:46:05;;;;;;;7.20;4.38;;;10.60;99.90;;;;;;5059514;28;20025;-70
2023/12/24 11:48:34;;;;;;;5.13;3.05;;;10.60;99.90;;;;;;5053205;28;20036;-70
2023/12/24 11:51:10;;;;;;;4.70;3.17;;;10.70;99.90;;;;;;5058117;28;20028;-72
2023/12/24 11:53:38;;;;;;;5.15;3.28;;;10.70;99.90;;;;;;5060247;28;20055;-70
2023/12/24 11:56:09;;;;;;;5.45;3.60;;;10.70;99.90;;;;;;5055999;28;20036;-69
2023/12/24 11:58:35;;;;;;;3.97;2.38;;;10.70;99.90;;;;;;5058897;28;20029;-69
2023/12/24 12:01:04;;;;;;;3.47;2.13;;;10.70;99.90;;;;;;5061237;28;20025;-71
2023/12/24 12:03:34;;;;;;;3.72;2.28;;;10.70;99.90;;;;;;5058977;28;20457;-71
2023/12/24 12:06:00;;;;;;;2.53;1.25;;;10.70;99.90;;;;;;5057772;28;20021;-70
2023/12/24 12:08:30;;;;;;;3.30;1.85;;;10.70;99.90;;;;;;5060239;28;20108;-68
2023/12/24 12:10:56;;;;;;;1.95;1.52;;;10.70;99.90;;;;;;5059198;28;20051;-68
2023/12/24 12:13:21;;;;;;;2.45;1.60;;;10.70;99.90;;;;;;5060746;28;20032;-72
2023/12/24 12:15:47;;;;;;;2.13;1.45;;;10.70;99.90;;;;;;5060793;28;20021;-69
2023/12/24 12:18:14;;;;;;;1.48;1.00;;;10.70;99.90;;;;;;5060831;28;20174;-71
2023/12/24 12:20:39;;;;;;;1.92;1.10;;;10.70;99.90;;;;;;5060022;28;20056;-69
2023/12/24 12:23:05;;;;;;;2.70;1.83;;;10.80;99.90;;;;;;5058425;28;20021;-74
2023/12/24 12:25:31;;;;;;;2.80;1.35;;;10.80;99.90;;;;;;5060555;28;20033;-69
2023/12/24 12:27:56;;;;;;;1.77;1.30;;;10.80;99.90;;;;;;5058221;28;20493;-70
2023/12/24 12:30:22;;;;;;;2.00;1.40;;;10.80;99.90;;;;;;5058066;28;20044;-71
2023/12/24 12:32:48;;;;;;;2.15;1.50;;;10.80;99.90;;;;;;5059114;28;20029;-72
2023/12/24 12:35:15;;;;;;;2.63;1.65;;;10.80;99.90;;;;;;5059314;28;20029;-71
2023/12/24 12:37:41;;;;;;;3.53;2.25;;;10.80;99.90;;;;;;5059878;28;20024;-69
2023/12/24 12:40:07;;;;;;;7.70;2.58;;;10.80;99.90;;;;;;5056156;28;20029;-69
2023/12/24 12:42:33;;;;;;;5.63;2.50;;;10.80;99.90;;;;;;5057335;28;20040;-71
2023/12/24 12:44:59;;;;;;;5.07;2.72;;;10.80;99.90;;;;;;5056005;28;20410;-70
2023/12/24 12:47:24;;;;;;;5.13;2.95;;;10.80;99.90;;;;;;5059829;28;20036;-73